Time,TemperatureF,DewpointF,PressureIn,WindDirection,WindDirectionDegrees,WindSpeedMPH,WindSpeedGustMPH,Humidity,HourlyPrecipIn,Conditions,Clouds,dailyrainin,SoftwareType,DateUTC
2013-07-28 00:06:00,53.7,48.0,29.82,North,6,0.0,0.0,82,0.00,,,0.00,weatherlink.com 1.10,2013-07-28 05:06:00,
2013-07-28 00:21:00,52.9,49.0,29.82,North,6,0.0,0.0,86,0.00,,,0.00,weatherlink.com 1.10,2013-07-28 05:21:00,
2013-07-28 00:36:00,52.5,49.0,29.82,North,6,0.0,0.0,89,0.00,,,0.00,weatherlink.com 1.10,2013-07-28 05:36:00,
2013-07-28 00:51:00,52.2,49.0,29.82,North,6,0.0,0.0,87,0.00,,,0.00,weatherlink.com 1.10,2013-07-28 05:51:00,
2013-07-28 01:06:00,52.2,48.0,29.82,North,6,0.0,0.0,86,0.00,,,0.00,weatherlink.com 1.10,2013-07-28 06:06:00,
2013-07-28 01:21:00,51.8,49.0,29.82,SSE,148,1.0,1.0,89,0.00,,,0.00,weatherlink.com 1.10,2013-07-28 06:21:00,
2013-07-28 01:36:00,51.6,49.0,29.82,SE,146,0.0,1.0,89,0.00,,,0.00,weatherlink.com 1.10,2013-07-28 06:36:00,
2013-07-28 01:51:00,51.2,48.0,29.82,SE,131,1.0,1.0,89,0.00,,,0.00,weatherlink.com 1.10,2013-07-28 06:51:00,
2013-07-28 02:06:00,51.3,48.0,29.83,SE,131,0.0,0.0,89,0.00,,,0.00,weatherlink.com 1.10,2013-07-28 07:06:00,
2013-07-28 02:21:00,50.6,48.0,29.83,SE,131,0.0,0.0,89,0.00,,,0.00,weatherlink.com 1.10,2013-07-28 07:21:00,
2013-07-28 02:36:00,50.4,48.0,29.83,SE,131,0.0,0.0,90,0.00,,,0.00,weatherlink.com 1.10,2013-07-28 07:36:00,
2013-07-28 02:51:00,49.8,47.0,29.83,SE,131,0.0,0.0,90,0.00,,,0.00,weatherlink.com 1.10,2013-07-28 07:51:00,
2013-07-28 03:06:00,49.3,47.0,29.83,SE,131,0.0,0.0,91,0.00,,,0.00,weatherlink.com 1.10,2013-07-28 08:06:00,
2013-07-28 03:21:00,48.7,47.0,29.82,SE,131,0.0,0.0,92,0.00,,,0.00,weatherlink.com 1.10,2013-07-28 08:21:00,
2013-07-28 03:36:00,48.5,46.0,29.82,SE,131,0.0,0.0,92,0.00,,,0.00,weatherlink.com 1.10,2013-07-28 08:36:00,
2013-07-28 03:51:00,48.3,46.0,29.82,SE,131,0.0,0.0,93,0.00,,,0.00,weatherlink.com 1.10,2013-07-28 08:51:00,
2013-07-28 04:06:00,48.2,46.0,29.82,SE,131,0.0,0.0,93,0.00,,,0.00,weatherlink.com 1.10,2013-07-28 09:06:00,
2013-07-28 04:22:00,47.9,46.0,29.82,SE,131,0.0,0.0,93,0.00,,,0.00,weatherlink.com 1.10,2013-07-28 09:22:00,
2013-07-28 04:37:00,47.8,46.0,29.81,SE,131,0.0,0.0,93,0.00,,,0.00,weatherlink.com 1.10,2013-07-28 09:37:00,
2013-07-28 04:51:00,47.4,46.0,29.81,SE,131,0.0,0.0,93,0.00,,,0.00,weatherlink.com 1.10,2013-07-28 09:51:00,
2013-07-28 05:07:00,47.3,46.0,29.81,SE,131,0.0,0.0,94,0.00,,,0.00,weatherlink.com 1.10,2013-07-28 10:07:00,
2013-07-28 05:22:00,46.9,45.0,29.81,SE,131,0.0,0.0,94,0.00,,,0.00,weatherlink.com 1.10,2013-07-28 10:22:00,
2013-07-28 05:37:00,47.0,45.0,29.81,SE,131,0.0,0.0,94,0.00,,,0.00,weatherlink.com 1.10,2013-07-28 10:37:00,
2013-07-28 05:52:00,46.5,45.0,29.82,SE,131,0.0,0.0,94,0.00,,,0.00,weatherlink.com 1.10,2013-07-28 10:52:00,
2013-07-28 06:07:00,46.1,45.0,29.82,SE,131,0.0,0.0,94,0.00,,,0.00,weatherlink.com 1.10,2013-07-28 11:07:00,
2013-07-28 06:22:00,46.0,45.0,29.83,SE,131,0.0,0.0,95,0.00,,,0.00,weatherlink.com 1.10,2013-07-28 11:22:00,
2013-07-28 06:37:00,47.0,46.0,29.83,SE,131,0.0,0.0,95,0.00,,,0.00,weatherlink.com 1.10,2013-07-28 11:37:00,
2013-07-28 06:52:00,49.8,49.0,29.84,NW,306,0.0,0.0,96,0.00,,,0.00,weatherlink.com 1.10,2013-07-28 11:52:00,
2013-07-28 07:07:00,52.0,50.0,29.84,WNW,295,0.0,0.0,94,0.00,,,0.00,weatherlink.com 1.10,2013-07-28 12:07:00,
2013-07-28 07:22:00,54.3,53.0,29.85,SSE,149,1.0,2.0,94,0.00,,,0.00,weatherlink.com 1.10,2013-07-28 12:22:00,
2013-07-28 07:37:00,55.9,53.0,29.85,SSE,154,1.0,2.0,89,0.00,,,0.00,weatherlink.com 1.10,2013-07-28 12:37:00,
2013-07-28 07:52:00,58.6,55.0,29.85,SSE,159,0.0,1.0,87,0.00,,,0.00,weatherlink.com 1.10,2013-07-28 12:52:00,
2013-07-28 08:07:00,60.2,54.0,29.85,WNW,291,0.0,1.0,81,0.00,,,0.00,weatherlink.com 1.10,2013-07-28 13:07:00,
2013-07-28 08:22:00,59.9,54.0,29.85,West,279,1.0,3.0,81,0.00,,,0.00,weatherlink.com 1.10,2013-07-28 13:22:00,
2013-07-28 08:37:00,61.7,56.0,29.85,WNW,283,0.0,2.0,80,0.00,,,0.00,weatherlink.com 1.10,2013-07-28 13:37:00,
2013-07-28 08:52:00,61.9,54.0,29.85,WNW,287,4.0,5.0,74,0.00,,,0.00,weatherlink.com 1.10,2013-07-28 13:52:00,
2013-07-28 09:07:00,62.6,54.0,29.84,NW,304,2.0,4.0,73,0.00,,,0.00,weatherlink.com 1.10,2013-07-28 14:07:00,
2013-07-28 09:22:00,63.2,54.0,29.85,NW,308,1.0,5.0,72,0.00,,,0.00,weatherlink.com 1.10,2013-07-28 14:22:00,
2013-07-28 09:37:00,65.8,57.0,29.84,WNW,292,1.0,2.0,72,0.00,,,0.00,weatherlink.com 1.10,2013-07-28 14:37:00,
2013-07-28 09:52:00,66.4,55.0,29.84,SW,232,0.0,5.0,67,0.00,,,0.00,weatherlink.com 1.10,2013-07-28 14:52:00,
2013-07-28 10:07:00,68.2,55.0,29.84,WNW,290,3.0,4.0,64,0.00,,,0.00,weatherlink.com 1.10,2013-07-28 15:07:00,
2013-07-28 10:22:00,67.7,53.0,29.84,NW,309,3.0,6.0,60,0.00,,,0.00,weatherlink.com 1.10,2013-07-28 15:22:00,
2013-07-28 10:37:00,68.1,51.0,29.84,North,1,1.0,6.0,54,0.00,,,0.00,weatherlink.com 1.10,2013-07-28 15:37:00,
2013-07-28 10:52:00,69.5,49.0,29.83,WNW,285,4.0,5.0,49,0.00,,,0.00,weatherlink.com 1.10,2013-07-28 15:52:00,
2013-07-28 11:07:00,70.0,50.0,29.84,WNW,283,6.0,6.0,50,0.00,,,0.00,weatherlink.com 1.10,2013-07-28 16:07:00,
2013-07-28 11:22:00,72.2,52.0,29.84,SE,132,2.0,5.0,49,0.00,,,0.00,weatherlink.com 1.10,2013-07-28 16:22:00,
2013-07-28 11:37:00,71.8,50.0,29.84,NW,309,4.0,4.0,47,0.00,,,0.00,weatherlink.com 1.10,2013-07-28 16:37:00,
2013-07-28 11:53:00,72.9,52.0,29.83,WNW,284,7.0,7.0,48,0.00,,,0.00,weatherlink.com 1.10,2013-07-28 16:53:00,
2013-07-28 12:08:00,71.6,52.0,29.83,ESE,117,1.0,8.0,50,0.00,,,0.00,weatherlink.com 1.10,2013-07-28 17:08:00,
2013-07-28 12:23:00,72.8,52.0,29.83,NW,316,2.0,6.0,48,0.00,,,0.00,weatherlink.com 1.10,2013-07-28 17:23:00,
2013-07-28 12:38:00,73.9,51.0,29.83,WSW,253,2.0,9.0,45,0.00,,,0.00,weatherlink.com 1.10,2013-07-28 17:38:00,
2013-07-28 12:53:00,73.5,52.0,29.82,West,263,0.0,11.0,47,0.00,,,0.00,weatherlink.com 1.10,2013-07-28 17:53:00,
2013-07-28 13:08:00,73.8,54.0,29.82,WSW,253,2.0,7.0,51,0.00,,,0.00,weatherlink.com 1.10,2013-07-28 18:08:00,
2013-07-28 13:23:00,73.5,52.0,29.81,NE,37,3.0,9.0,48,0.00,,,0.00,weatherlink.com 1.10,2013-07-28 18:23:00,
2013-07-28 13:38:00,74.7,54.0,29.81,South,186,2.0,6.0,48,0.00,,,0.00,weatherlink.com 1.10,2013-07-28 18:38:00,
2013-07-28 13:53:00,74.8,51.0,29.81,ESE,122,3.0,11.0,44,0.00,,,0.00,weatherlink.com 1.10,2013-07-28 18:53:00,
2013-07-28 14:08:00,74.9,52.0,29.81,WNW,283,1.0,8.0,45,0.00,,,0.00,weatherlink.com 1.10,2013-07-28 19:08:00,
2013-07-28 14:23:00,75.7,53.0,29.80,NW,314,7.0,7.0,45,0.00,,,0.00,weatherlink.com 1.10,2013-07-28 19:23:00,
2013-07-28 14:38:00,75.6,56.0,29.80,NNE,30,1.0,4.0,50,0.00,,,0.00,weatherlink.com 1.10,2013-07-28 19:38:00,
2013-07-28 14:53:00,75.5,51.0,29.80,ENE,67,2.0,11.0,42,0.00,,,0.00,weatherlink.com 1.10,2013-07-28 19:53:00,
2013-07-28 15:08:00,75.5,53.0,29.80,WNW,289,4.0,7.0,45,0.00,,,0.00,weatherlink.com 1.10,2013-07-28 20:08:00,
2013-07-28 15:23:00,76.6,52.0,29.80,ESE,122,2.0,6.0,43,0.00,,,0.00,weatherlink.com 1.10,2013-07-28 20:23:00,
2013-07-28 15:38:00,77.9,54.0,29.80,NW,312,1.0,6.0,44,0.00,,,0.00,weatherlink.com 1.10,2013-07-28 20:38:00,
2013-07-28 15:53:00,78.1,52.0,29.80,NW,305,6.0,10.0,40,0.00,,,0.00,weatherlink.com 1.10,2013-07-28 20:53:00,
2013-07-28 16:08:00,77.0,52.0,29.80,WNW,285,2.0,7.0,42,0.00,,,0.00,weatherlink.com 1.10,2013-07-28 21:08:00,
2013-07-28 16:23:00,77.5,51.0,29.79,West,280,3.0,7.0,40,0.00,,,0.00,weatherlink.com 1.10,2013-07-28 21:23:00,
2013-07-28 16:38:00,77.9,51.0,29.79,WNW,297,4.0,7.0,39,0.00,,,0.00,weatherlink.com 1.10,2013-07-28 21:38:00,
2013-07-28 16:53:00,76.4,51.0,29.79,WNW,293,5.0,9.0,41,0.00,,,0.00,weatherlink.com 1.10,2013-07-28 21:53:00,
2013-07-28 17:08:00,77.6,51.0,29.79,WNW,291,0.0,4.0,39,0.00,,,0.00,weatherlink.com 1.10,2013-07-28 22:08:00,
2013-07-28 17:23:00,77.5,52.0,29.79,NW,314,5.0,6.0,41,0.00,,,0.00,weatherlink.com 1.10,2013-07-28 22:23:00,
2013-07-28 17:38:00,77.3,51.0,29.79,SW,226,0.0,4.0,40,0.00,,,0.00,weatherlink.com 1.10,2013-07-28 22:38:00,
2013-07-28 17:53:00,77.2,51.0,29.79,SSE,159,0.0,4.0,40,0.00,,,0.00,weatherlink.com 1.10,2013-07-28 22:53:00,
2013-07-28 18:08:00,77.4,52.0,29.79,SSE,158,2.0,5.0,41,0.00,,,0.00,weatherlink.com 1.10,2013-07-28 23:08:00,
2013-07-28 18:23:00,77.7,51.0,29.78,SE,136,1.0,3.0,40,0.00,,,0.00,weatherlink.com 1.10,2013-07-28 23:23:00,
2013-07-28 18:38:00,76.3,51.0,29.78,SSE,165,1.0,3.0,41,0.00,,,0.00,weatherlink.com 1.10,2013-07-28 23:38:00,
2013-07-28 18:53:00,78.5,52.0,29.78,SE,146,2.0,2.0,40,0.00,,,0.00,weatherlink.com 1.10,2013-07-28 23:53:00,
2013-07-28 19:08:00,76.6,52.0,29.78,SSE,149,1.0,2.0,42,0.00,,,0.00,weatherlink.com 1.10,2013-07-29 00:08:00,
2013-07-28 19:23:00,76.5,53.0,29.78,SE,138,1.0,3.0,44,0.00,,,0.00,weatherlink.com 1.10,2013-07-29 00:23:00,
2013-07-28 19:38:00,75.9,54.0,29.78,ESE,121,1.0,2.0,46,0.00,,,0.00,weatherlink.com 1.10,2013-07-29 00:38:00,
2013-07-28 19:53:00,75.5,53.0,29.79,SE,141,0.0,2.0,45,0.00,,,0.00,weatherlink.com 1.10,2013-07-29 00:53:00,
2013-07-28 20:08:00,73.6,56.0,29.79,SE,133,1.0,1.0,55,0.00,,,0.00,weatherlink.com 1.10,2013-07-29 01:08:00,
2013-07-28 20:23:00,71.3,57.0,29.79,SE,133,0.0,1.0,60,0.00,,,0.00,weatherlink.com 1.10,2013-07-29 01:23:00,
2013-07-28 20:38:00,68.9,56.0,29.78,ESE,117,1.0,1.0,64,0.00,,,0.00,weatherlink.com 1.10,2013-07-29 01:38:00,
2013-07-28 20:53:00,67.6,55.0,29.79,East,92,1.0,1.0,64,0.00,,,0.00,weatherlink.com 1.10,2013-07-29 01:53:00,
2013-07-28 21:08:00,66.7,56.0,29.79,East,91,5.0,5.0,68,0.00,,,0.00,weatherlink.com 1.10,2013-07-29 02:08:00,
2013-07-28 21:23:00,67.3,54.0,29.80,East,86,6.0,7.0,63,0.00,,,0.00,weatherlink.com 1.10,2013-07-29 02:23:00,
2013-07-28 21:38:00,67.5,54.0,29.80,East,94,5.0,6.0,63,0.00,,,0.00,weatherlink.com 1.10,2013-07-29 02:38:00,
2013-07-28 21:53:00,67.5,53.0,29.81,East,89,4.0,7.0,61,0.00,,,0.00,weatherlink.com 1.10,2013-07-29 02:53:00,
2013-07-28 22:23:00,66.1,54.0,29.81,East,94,5.0,5.0,65,0.00,,,0.00,weatherlink.com 1.10,2013-07-29 03:23:00,
2013-07-28 22:38:00,66.7,53.0,29.81,East,91,5.0,7.0,62,0.00,,,0.00,weatherlink.com 1.10,2013-07-29 03:38:00,
2013-07-28 23:08:00,65.4,52.0,29.82,East,88,5.0,6.0,63,0.00,,,0.00,weatherlink.com 1.10,2013-07-29 04:08:00,
2013-07-28 23:23:00,62.2,53.0,29.82,ESE,122,3.0,4.0,73,0.00,,,0.00,weatherlink.com 1.10,2013-07-29 04:23:00,
2013-07-28 23:38:00,62.4,53.0,29.82,East,92,5.0,5.0,71,0.00,,,0.00,weatherlink.com 1.10,2013-07-29 04:38:00,
2013-07-28 23:53:00,62.9,53.0,29.81,East,86,5.0,5.0,70,0.00,,,0.00,weatherlink.com 1.10,2013-07-29 04:53:00,